Time;durP1;ratioP1;P1;durP2;ratioP2;P2;SDS_P1;SDS_P2;PMS_P1;PMS_P2;Temp;Humidity;BMP_temperature;BMP_pressure;BME280_temperature;BME280_humidity;BME280_pressure;Samples;Min_cycle;Max_cycle;Signal;HPM_P1;HPM_P2
2023/12/17 00:00:52;;;;;;;12.25;9.00;;;10.50;99.90;;;;;;4884262;29;20516;-76
2023/12/17 00:03:18;;;;;;;15.60;9.43;;;10.50;99.90;;;;;;4902321;29;20033;-76
2023/12/17 00:05:43;;;;;;;11.48;8.27;;;10.50;99.90;;;;;;4903196;29;20040;-76
2023/12/17 00:08:09;;;;;;;11.25;8.63;;;10.60;99.90;;;;;;4902655;29;20044;-77
2023/12/17 00:10:37;;;;;;;12.15;8.32;;;10.60;99.90;;;;;;4901074;29;20039;-77
2023/12/17 00:13:04;;;;;;;10.50;7.90;;;10.50;99.90;;;;;;4869128;29;20075;-76
2023/12/17 00:15:30;;;;;;;9.55;7.28;;;10.60;99.90;;;;;;4881607;29;20081;-78
2023/12/17 00:17:55;;;;;;;10.27;7.05;;;10.60;99.90;;;;;;4897204;29;20033;-77
2023/12/17 00:20:21;;;;;;;11.43;7.18;;;10.60;99.90;;;;;;4896533;29;20040;-77
2023/12/17 00:22:47;;;;;;;10.15;6.95;;;10.60;99.90;;;;;;4895957;29;20031;-77
2023/12/17 00:25:12;;;;;;;9.68;6.75;;;10.60;99.90;;;;;;4881221;29;20043;-77
2023/12/17 00:27:38;;;;;;;10.57;6.70;;;10.60;99.90;;;;;;4896442;29;20392;-76
2023/12/17 00:30:04;;;;;;;9.10;6.45;;;10.60;99.90;;;;;;4897391;29;20187;-77
2023/12/17 00:32:29;;;;;;;9.23;6.25;;;10.60;99.90;;;;;;4896663;29;20032;-77
2023/12/17 00:34:55;;;;;;;8.63;6.13;;;10.70;99.90;;;;;;4880996;29;20037;-76
2023/12/17 00:37:21;;;;;;;8.45;6.45;;;10.60;99.90;;;;;;4880936;29;20064;-78
2023/12/17 00:39:46;;;;;;;8.25;6.50;;;10.60;99.90;;;;;;4897566;29;20531;-78
2023/12/17 00:42:12;;;;;;;9.35;6.50;;;10.60;99.90;;;;;;4899522;29;20143;-77
2023/12/17 00:44:38;;;;;;;8.88;6.80;;;10.60;99.90;;;;;;4899464;29;20116;-77
2023/12/17 00:47:03;;;;;;;11.77;6.88;;;10.60;99.90;;;;;;4899801;29;20037;-77
2023/12/17 00:49:29;;;;;;;10.45;6.60;;;10.70;99.90;;;;;;4883907;29;20517;-77
2023/12/17 00:51:55;;;;;;;8.60;6.35;;;10.70;99.90;;;;;;4884163;29;20449;-77
2023/12/17 00:54:20;;;;;;;8.93;6.57;;;10.70;99.90;;;;;;4868634;29;20127;-77
2023/12/17 00:56:46;;;;;;;8.65;6.00;;;10.70;99.90;;;;;;4916363;29;20450;-77
2023/12/17 00:59:12;;;;;;;7.22;5.43;;;10.60;99.90;;;;;;4899189;29;20035;-77
2023/12/17 01:01:38;;;;;;;9.20;4.97;;;10.60;99.90;;;;;;4884152;29;20028;-77
2023/12/17 01:04:04;;;;;;;8.32;5.63;;;10.60;99.90;;;;;;4899403;29;20036;-76
2023/12/17 01:06:30;;;;;;;6.35;5.03;;;10.60;99.90;;;;;;4899382;29;20541;-77
2023/12/17 01:08:55;;;;;;;7.80;5.57;;;10.60;99.90;;;;;;4899413;29;20028;-76
2023/12/17 01:11:21;;;;;;;6.43;5.53;;;10.60;99.90;;;;;;4884131;29;20469;-76
2023/12/17 01:13:46;;;;;;;6.03;5.20;;;10.60;99.90;;;;;;4899606;29;20059;-77
2023/12/17 01:16:12;;;;;;;8.30;5.88;;;10.60;99.90;;;;;;4884371;29;20372;-76
2023/12/17 01:18:38;;;;;;;8.48;5.50;;;10.60;99.90;;;;;;4883878;29;20099;-76
2023/12/17 01:21:05;;;;;;;9.38;6.13;;;10.60;99.90;;;;;;4883641;29;20043;-76
2023/12/17 01:23:31;;;;;;;7.40;5.95;;;10.60;99.90;;;;;;4898918;29;20126;-77
2023/12/17 01:25:57;;;;;;;7.28;5.57;;;10.60;99.90;;;;;;4898686;29;20124;-76
2023/12/17 01:28:22;;;;;;;10.43;6.50;;;10.60;99.90;;;;;;4883629;29;20043;-76
2023/12/17 01:30:48;;;;;;;9.40;6.35;;;10.70;99.90;;;;;;4899235;29;20032;-76
2023/12/17 01:33:14;;;;;;;9.10;6.22;;;10.70;99.90;;;;;;4883443;29;20534;-76
2023/12/17 01:35:39;;;;;;;9.20;6.38;;;10.70;99.90;;;;;;4883349;29;20500;-77
2023/12/17 01:38:05;;;;;;;8.38;6.18;;;10.60;99.90;;;;;;4898953;29;20028;-77
2023/12/17 01:40:31;;;;;;;10.10;6.88;;;10.60;99.90;;;;;;4885226;29;20036;-76
2023/12/17 01:42:57;;;;;;;10.30;7.43;;;10.60;99.90;;;;;;4902558;29;20076;-77
2023/12/17 01:45:22;;;;;;;9.65;6.50;;;10.70;99.90;;;;;;4919794;29;20064;-76
2023/12/17 01:47:49;;;;;;;9.63;6.97;;;10.70;99.90;;;;;;4902440;29;20036;-77
2023/12/17 01:50:15;;;;;;;8.65;6.50;;;10.60;99.90;;;;;;4919617;29;20478;-77
2023/12/17 01:52:41;;;;;;;9.27;6.50;;;10.60;99.90;;;;;;4902257;29;20430;-77
2023/12/17 01:55:08;;;;;;;8.77;6.20;;;10.60;99.90;;;;;;4902440;29;20032;-76
2023/12/17 01:57:34;;;;;;;9.00;5.85;;;10.60;99.90;;;;;;4902423;29;20190;-76
2023/12/17 02:00:00;;;;;;;7.57;5.55;;;10.60;99.90;;;;;;4919343;29;20116;-76
2023/12/17 02:02:26;;;;;;;8.02;4.88;;;10.60;99.90;;;;;;4887103;29;20456;-77
2023/12/17 02:04:52;;;;;;;9.10;5.45;;;10.60;99.90;;;;;;4886481;29;20036;-77
2023/12/17 02:07:18;;;;;;;7.70;5.65;;;10.60;99.90;;;;;;4902132;29;20088;-76
2023/12/17 02:09:44;;;;;;;7.55;5.28;;;10.60;99.90;;;;;;4886873;29;20040;-75
2023/12/17 02:12:25;;;;;;;8.55;5.47;;;10.70;99.90;;;;;;4919863;29;20124;-75
2023/12/17 02:14:50;;;;;;;7.15;5.68;;;10.70;99.90;;;;;;4920098;29;20032;-75
2023/12/17 02:17:25;;;;;;;9.05;5.47;;;10.70;99.90;;;;;;4919674;29;20036;-74
2023/12/17 02:19:50;;;;;;;8.10;5.80;;;10.70;99.90;;;;;;4919883;29;20028;-75
2023/12/17 02:22:16;;;;;;;8.10;5.47;;;10.70;99.90;;;;;;4902988;29;20040;-75
2023/12/17 02:24:42;;;;;;;10.27;5.40;;;10.70;99.90;;;;;;4903016;29;20040;-75
2023/12/17 02:27:07;;;;;;;7.45;5.45;;;10.70;99.90;;;;;;4902541;29;20394;-75
2023/12/17 02:29:33;;;;;;;8.55;5.53;;;10.70;99.90;;;;;;4919707;29;20358;-75
2023/12/17 02:31:59;;;;;;;9.43;5.05;;;10.70;99.90;;;;;;4919125;29;20044;-74
2023/12/17 02:34:24;;;;;;;7.38;5.30;;;10.60;99.90;;;;;;4919328;29;20040;-74
2023/12/17 02:36:50;;;;;;;10.27;5.10;;;10.70;99.90;;;;;;4902638;29;20059;-75
2023/12/17 02:39:15;;;;;;;8.70;4.75;;;10.70;99.90;;;;;;4919279;29;20127;-75
2023/12/17 02:41:42;;;;;;;7.65;4.28;;;10.70;99.90;;;;;;4901757;29;20540;-75
2023/12/17 02:44:08;;;;;;;9.52;4.13;;;10.70;99.90;;;;;;4902692;29;20040;-75
2023/12/17 02:46:33;;;;;;;9.95;4.43;;;10.60;99.90;;;;;;4902250;29;20046;-75
2023/12/17 02:48:59;;;;;;;9.68;4.45;;;10.70;99.90;;;;;;4918840;29;20465;-75
2023/12/17 02:51:25;;;;;;;6.80;4.45;;;10.70;99.90;;;;;;4901712;29;20464;-75
2023/12/17 02:53:50;;;;;;;9.95;4.57;;;10.70;99.90;;;;;;4902141;29;20068;-75
2023/12/17 02:56:16;;;;;;;8.68;5.03;;;10.70;99.90;;;;;;4901929;29;20036;-75
2023/12/17 02:58:41;;;;;;;9.93;4.90;;;10.70;99.90;;;;;;4902329;29;20084;-75
2023/12/17 03:01:07;;;;;;;9.98;5.47;;;10.70;99.90;;;;;;4901860;29;20059;-74
2023/12/17 03:03:33;;;;;;;9.85;5.90;;;10.70;99.90;;;;;;4901843;29;20032;-74
2023/12/17 03:05:58;;;;;;;10.68;6.30;;;10.80;99.90;;;;;;4902124;29;20036;-75
2023/12/17 03:08:24;;;;;;;14.77;7.10;;;10.80;99.90;;;;;;4918774;29;20033;-75
2023/12/17 03:10:49;;;;;;;12.05;6.95;;;10.80;99.90;;;;;;4918758;29;20036;-74
2023/12/17 03:13:15;;;;;;;9.73;7.35;;;10.80;99.90;;;;;;4918635;29;20036;-74
2023/12/17 03:15:41;;;;;;;12.57;6.68;;;10.80;99.90;;;;;;4918643;29;20067;-74
2023/12/17 03:18:06;;;;;;;10.80;7.07;;;10.70;99.90;;;;;;4918576;29;20118;-74
2023/12/17 03:20:32;;;;;;;10.45;6.53;;;10.70;99.90;;;;;;4901493;29;20040;-74
2023/12/17 03:22:58;;;;;;;14.55;7.68;;;10.70;99.90;;;;;;4901433;29;20036;-74
2023/12/17 03:25:24;;;;;;;17.38;8.57;;;10.70;99.90;;;;;;4901814;29;20028;-74
2023/12/17 03:27:49;;;;;;;13.50;8.43;;;10.70;99.90;;;;;;4901490;29;20389;-74
2023/12/17 03:30:15;;;;;;;14.93;8.85;;;10.70;99.90;;;;;;4886056;29;20092;-74
2023/12/17 03:32:41;;;;;;;13.38;8.70;;;10.80;99.90;;;;;;4918055;29;20032;-74
2023/12/17 03:35:07;;;;;;;17.85;8.73;;;10.80;99.90;;;;;;4918342;29;20042;-74
2023/12/17 03:37:32;;;;;;;10.13;6.80;;;10.80;99.90;;;;;;4918119;29;20108;-74
2023/12/17 03:39:58;;;;;;;12.20;7.25;;;10.70;99.90;;;;;;4900895;29;20032;-75
2023/12/17 03:42:23;;;;;;;13.80;8.48;;;10.70;99.90;;;;;;4885223;29;20060;-76
2023/12/17 03:44:49;;;;;;;14.60;7.15;;;10.80;99.90;;;;;;4917831;29;20102;-75
2023/12/17 03:47:15;;;;;;;11.88;7.05;;;10.80;99.90;;;;;;4901234;29;20075;-75
2023/12/17 03:49:40;;;;;;;13.23;6.68;;;10.80;99.90;;;;;;4918011;29;20172;-73
2023/12/17 03:52:06;;;;;;;15.88;7.10;;;10.80;99.90;;;;;;4900997;29;20465;-76
2023/12/17 03:54:32;;;;;;;11.38;6.45;;;10.80;99.90;;;;;;4917656;29;20044;-74
2023/12/17 03:56:58;;;;;;;13.80;6.85;;;10.70;99.90;;;;;;4901065;29;20574;-74
2023/12/17 03:59:23;;;;;;;15.55;7.03;;;10.80;99.90;;;;;;4917541;29;20496;-74
2023/12/17 04:01:49;;;;;;;12.88;6.53;;;10.70;99.90;;;;;;4918041;29;20032;-74
2023/12/17 04:04:15;;;;;;;12.40;6.72;;;10.70;99.90;;;;;;4916927;29;20056;-74
2023/12/17 04:06:42;;;;;;;11.48;6.07;;;10.70;99.90;;;;;;4900943;29;20039;-74
2023/12/17 04:09:08;;;;;;;12.75;5.93;;;10.70;99.90;;;;;;4917471;29;20054;-74
2023/12/17 04:11:34;;;;;;;9.25;5.07;;;10.60;99.90;;;;;;4917577;29;20040;-74
2023/12/17 04:14:01;;;;;;;11.57;5.63;;;10.60;99.90;;;;;;4901236;29;20036;-74
2023/12/17 04:16:26;;;;;;;13.68;5.18;;;10.60;99.90;;;;;;4900805;29;20039;-75
2023/12/17 04:18:52;;;;;;;11.25;4.75;;;10.60;99.90;;;;;;4917893;29;20028;-74
2023/12/17 04:21:18;;;;;;;8.13;4.10;;;10.60;99.90;;;;;;4900803;29;20043;-75
2023/12/17 04:23:44;;;;;;;8.32;3.97;;;10.60;99.90;;;;;;4917671;29;20422;-76
2023/12/17 04:26:13;;;;;;;8.85;4.82;;;10.60;99.90;;;;;;4900513;29;20095;-75
2023/12/17 04:28:39;;;;;;;7.60;4.45;;;10.50;99.90;;;;;;4901203;29;20446;-75
2023/12/17 04:31:05;;;;;;;8.68;4.90;;;10.50;99.90;;;;;;4900212;29;20115;-75
2023/12/17 04:33:31;;;;;;;7.50;4.93;;;10.50;99.90;;;;;;4900570;29;20122;-75
2023/12/17 04:35:57;;;;;;;6.20;4.82;;;10.50;99.90;;;;;;4917050;29;20037;-75
2023/12/17 04:38:23;;;;;;;6.53;4.32;;;10.50;99.90;;;;;;4900335;29;20039;-75
2023/12/17 04:40:49;;;;;;;9.07;5.75;;;10.50;99.90;;;;;;4900520;29;20487;-75
2023/12/17 04:43:15;;;;;;;9.30;6.93;;;10.50;99.90;;;;;;4916805;29;20166;-76
2023/12/17 04:45:41;;;;;;;10.60;7.55;;;10.50;99.90;;;;;;4900375;29;20032;-74
2023/12/17 04:48:07;;;;;;;11.38;7.85;;;10.50;99.90;;;;;;4916999;29;20407;-75
2023/12/17 04:50:32;;;;;;;9.55;7.47;;;10.50;99.90;;;;;;4900571;29;20040;-75
2023/12/17 04:52:58;;;;;;;10.70;6.38;;;10.50;99.90;;;;;;4917047;29;20065;-75
2023/12/17 04:55:24;;;;;;;10.35;6.10;;;10.50;99.90;;;;;;4884237;29;20036;-75
2023/12/17 04:57:49;;;;;;;9.25;6.03;;;10.40;99.90;;;;;;4884577;29;20033;-75
2023/12/17 05:00:15;;;;;;;7.97;6.28;;;10.40;99.90;;;;;;4900446;29;20119;-75
2023/12/17 05:02:41;;;;;;;10.68;6.70;;;10.40;99.90;;;;;;4916989;29;20123;-75
2023/12/17 05:05:07;;;;;;;10.25;7.43;;;10.40;99.90;;;;;;4917310;29;20503;-75
2023/12/17 05:07:33;;;;;;;12.18;8.55;;;10.30;99.90;;;;;;4900244;29;20400;-75
2023/12/17 05:09:59;;;;;;;15.85;8.75;;;10.30;99.90;;;;;;4917071;29;20438;-75
2023/12/17 05:12:25;;;;;;;16.10;9.80;;;10.30;99.90;;;;;;4917081;29;20039;-75
2023/12/17 05:14:50;;;;;;;14.65;9.57;;;10.30;99.90;;;;;;4900707;29;20036;-75
2023/12/17 05:17:16;;;;;;;18.13;11.32;;;10.30;99.90;;;;;;4904564;29;20373;-75
2023/12/17 05:19:42;;;;;;;17.00;10.60;;;10.30;99.90;;;;;;4872901;29;20048;-76
2023/12/17 05:22:07;;;;;;;17.50;10.57;;;10.30;99.90;;;;;;4920606;29;20036;-76
2023/12/17 05:24:33;;;;;;;19.80;12.50;;;10.30;99.90;;;;;;4920590;29;20028;-74
2023/12/17 05:26:59;;;;;;;20.02;12.50;;;10.40;99.90;;;;;;4921012;29;20040;-74
2023/12/17 05:29:24;;;;;;;19.50;12.88;;;10.40;99.90;;;;;;4904299;29;20033;-74
2023/12/17 05:31:50;;;;;;;21.77;13.73;;;10.40;99.90;;;;;;4920215;29;20389;-74
2023/12/17 05:34:16;;;;;;;21.25;14.00;;;10.40;99.90;;;;;;4903943;29;20035;-74
2023/12/17 05:36:42;;;;;;;23.20;15.15;;;10.40;99.90;;;;;;4920595;29;20114;-74
2023/12/17 05:39:08;;;;;;;26.23;15.35;;;10.40;99.90;;;;;;4903527;29;20040;-74
2023/12/17 05:41:34;;;;;;;25.25;15.25;;;10.40;99.90;;;;;;4903598;29;20138;-74
2023/12/17 05:44:00;;;;;;;24.17;15.35;;;10.50;99.90;;;;;;4920243;29;20063;-74
2023/12/17 05:46:26;;;;;;;23.77;15.70;;;10.50;99.90;;;;;;4920285;29;20453;-74
2023/12/17 05:48:52;;;;;;;23.73;15.65;;;10.50;99.90;;;;;;4920434;29;20040;-74
2023/12/17 05:51:19;;;;;;;28.88;18.00;;;10.50;99.90;;;;;;4920055;29;20186;-74
2023/12/17 05:53:45;;;;;;;29.60;19.45;;;10.50;99.90;;;;;;4903082;29;20040;-74
2023/12/17 05:56:11;;;;;;;32.13;18.58;;;10.40;99.90;;;;;;4902955;29;20036;-74
2023/12/17 05:58:37;;;;;;;31.40;17.77;;;10.40;99.90;;;;;;4902855;29;20032;-74
2023/12/17 06:01:03;;;;;;;32.08;19.33;;;10.40;99.90;;;;;;4888195;29;20088;-74
2023/12/17 06:03:30;;;;;;;30.75;20.70;;;10.40;99.90;;;;;;4903016;29;20326;-75
2023/12/17 06:05:55;;;;;;;26.88;18.25;;;10.40;99.90;;;;;;4902533;29;20043;-75
2023/12/17 06:08:21;;;;;;;31.63;19.90;;;10.40;99.90;;;;;;4919842;29;20028;-74
2023/12/17 06:10:47;;;;;;;32.50;20.65;;;10.40;99.90;;;;;;4902883;29;20051;-74
2023/12/17 06:13:13;;;;;;;27.55;18.80;;;10.40;99.90;;;;;;4919980;29;20032;-74
2023/12/17 06:15:39;;;;;;;29.70;19.45;;;10.40;99.90;;;;;;4902730;29;20040;-74
2023/12/17 06:18:05;;;;;;;28.83;18.20;;;10.40;99.90;;;;;;4903040;29;20039;-74
2023/12/17 06:20:30;;;;;;;28.67;18.33;;;10.40;99.90;;;;;;4903096;29;20028;-75
2023/12/17 06:22:56;;;;;;;27.90;17.38;;;10.40;99.90;;;;;;4919216;29;20034;-75
2023/12/17 06:25:22;;;;;;;30.52;18.30;;;10.40;99.90;;;;;;4902541;29;20044;-75
2023/12/17 06:27:49;;;;;;;25.52;18.10;;;10.40;99.90;;;;;;4886722;29;20454;-75
2023/12/17 06:30:15;;;;;;;28.58;17.73;;;10.40;99.90;;;;;;4919587;29;20087;-74
2023/12/17 06:32:41;;;;;;;29.75;17.58;;;10.40;99.90;;;;;;4919568;29;20111;-74
2023/12/17 06:35:07;;;;;;;25.40;16.83;;;10.50;99.90;;;;;;4902376;29;20043;-75
2023/12/17 06:37:33;;;;;;;26.92;17.50;;;10.50;99.90;;;;;;4919196;29;20024;-75
2023/12/17 06:39:58;;;;;;;26.98;17.48;;;10.50;99.90;;;;;;4886749;29;20127;-76
2023/12/17 06:42:24;;;;;;;28.30;17.50;;;10.50;99.90;;;;;;4902207;29;20059;-75
2023/12/17 06:44:50;;;;;;;24.92;16.20;;;10.50;99.90;;;;;;4886599;29;20496;-75
2023/12/17 06:47:17;;;;;;;24.90;16.73;;;10.50;99.90;;;;;;4902055;29;20040;-74
2023/12/17 06:49:44;;;;;;;24.08;16.35;;;10.50;99.90;;;;;;4919335;29;20402;-75
2023/12/17 06:52:10;;;;;;;24.90;15.88;;;10.50;99.90;;;;;;4918918;29;20038;-74
2023/12/17 06:54:36;;;;;;;24.33;16.75;;;10.50;99.90;;;;;;4919212;29;20043;-74
2023/12/17 06:57:01;;;;;;;23.98;15.80;;;10.50;99.90;;;;;;4901949;29;20581;-75
2023/12/17 06:59:27;;;;;;;23.10;16.25;;;10.50;99.90;;;;;;4902083;29;20031;-75
2023/12/17 07:01:53;;;;;;;25.48;16.48;;;10.50;99.90;;;;;;4886537;29;20052;-75
2023/12/17 07:04:18;;;;;;;22.92;15.00;;;10.40;99.90;;;;;;4901896;29;20461;-74
2023/12/17 07:06:44;;;;;;;21.30;14.70;;;10.40;99.90;;;;;;4901773;29;20051;-75
2023/12/17 07:09:10;;;;;;;22.63;14.50;;;10.40;99.90;;;;;;4886370;29;20114;-75
2023/12/17 07:11:35;;;;;;;21.23;14.10;;;10.40;99.90;;;;;;4901925;29;20028;-75
2023/12/17 07:14:01;;;;;;;21.40;14.57;;;10.40;99.90;;;;;;4901537;29;20124;-74
2023/12/17 07:16:30;;;;;;;19.02;13.48;;;10.30;99.90;;;;;;4918061;29;20140;-74
2023/12/17 07:18:56;;;;;;;21.38;14.43;;;10.30;99.90;;;;;;4918519;29;20032;-74
2023/12/17 07:21:22;;;;;;;24.70;14.30;;;10.30;99.90;;;;;;4901009;29;20036;-74
2023/12/17 07:23:48;;;;;;;22.45;14.05;;;10.30;99.90;;;;;;4901599;29;20040;-74
2023/12/17 07:26:14;;;;;;;21.00;14.15;;;10.30;99.90;;;;;;4917902;29;20175;-74
2023/12/17 07:28:40;;;;;;;23.20;14.52;;;10.30;99.90;;;;;;4885468;29;20059;-74
2023/12/17 07:31:05;;;;;;;20.10;14.57;;;10.30;99.90;;;;;;4900976;29;20036;-74
2023/12/17 07:33:31;;;;;;;21.95;14.65;;;10.30;99.90;;;;;;4918017;29;20201;-74
2023/12/17 07:35:57;;;;;;;21.95;14.43;;;10.30;99.90;;;;;;4901037;29;20028;-74
2023/12/17 07:38:22;;;;;;;23.77;15.93;;;10.30;99.90;;;;;;4900845;29;20091;-74
2023/12/17 07:40:48;;;;;;;27.33;17.73;;;10.30;99.90;;;;;;4901155;29;20044;-74
2023/12/17 07:43:14;;;;;;;25.65;16.38;;;10.30;99.90;;;;;;4918429;29;20064;-74
2023/12/17 07:45:40;;;;;;;29.00;17.60;;;10.30;99.90;;;;;;4900628;29;20133;-75
2023/12/17 07:48:06;;;;;;;29.30;18.23;;;10.30;99.90;;;;;;4900615;29;20493;-76
2023/12/17 07:50:31;;;;;;;30.00;19.52;;;10.30;99.90;;;;;;4884859;29;20060;-74
2023/12/17 07:52:57;;;;;;;29.50;18.13;;;10.30;99.90;;;;;;4917537;29;20035;-76
2023/12/17 07:55:23;;;;;;;33.28;19.67;;;10.30;99.90;;;;;;4900373;29;20040;-76
2023/12/17 07:57:48;;;;;;;36.55;21.83;;;10.30;99.90;;;;;;4900591;29;20029;-75
2023/12/17 08:00:15;;;;;;;39.13;23.38;;;10.30;99.90;;;;;;4917663;29;20044;-75
2023/12/17 08:02:40;;;;;;;44.58;25.80;;;10.30;99.90;;;;;;4917879;29;20028;-75
2023/12/17 08:05:07;;;;;;;39.70;24.40;;;10.20;99.90;;;;;;4900231;29;20401;-75
2023/12/17 08:07:33;;;;;;;44.50;25.92;;;10.20;99.90;;;;;;4900455;29;20028;-75
2023/12/17 08:09:59;;;;;;;45.20;26.15;;;10.20;99.90;;;;;;4917652;29;20051;-75
2023/12/17 08:12:25;;;;;;;44.35;26.33;;;10.20;99.90;;;;;;4900344;29;20032;-75
2023/12/17 08:14:50;;;;;;;47.95;27.42;;;10.20;99.90;;;;;;4917374;29;20028;-74
2023/12/17 08:17:16;;;;;;;49.78;28.27;;;10.20;99.90;;;;;;4917355;29;20087;-79
2023/12/17 08:19:42;;;;;;;44.10;26.25;;;10.10;99.90;;;;;;4869207;29;20040;-79
2023/12/17 08:22:09;;;;;;;47.45;26.83;;;10.10;99.90;;;;;;4900340;29;20059;-79
2023/12/17 08:24:34;;;;;;;43.53;24.95;;;10.10;99.90;;;;;;4899999;29;20036;-78
2023/12/17 08:27:02;;;;;;;48.58;25.80;;;10.10;99.90;;;;;;4884587;29;20453;-78
2023/12/17 08:29:28;;;;;;;44.10;25.20;;;10.10;99.90;;;;;;4900043;29;20437;-78
2023/12/17 08:31:55;;;;;;;40.80;24.75;;;10.00;99.90;;;;;;4916988;29;20032;-79
2023/12/17 08:34:31;;;;;;;40.97;25.02;;;10.00;99.90;;;;;;4884659;29;20191;-78
2023/12/17 08:36:57;;;;;;;42.95;24.55;;;10.00;99.90;;;;;;4899986;29;20043;-77
2023/12/17 08:39:23;;;;;;;41.85;23.83;;;10.00;99.90;;;;;;4884722;29;20032;-77
2023/12/17 08:41:53;;;;;;;39.47;23.77;;;10.00;99.90;;;;;;4916730;29;20056;-78
2023/12/17 08:44:23;;;;;;;34.95;21.95;;;10.00;99.90;;;;;;4917325;29;20123;-80
2023/12/17 08:46:52;;;;;;;34.60;21.27;;;10.00;99.90;;;;;;4884755;29;20179;-83
2023/12/17 08:49:18;;;;;;;39.28;22.45;;;10.00;99.90;;;;;;4884244;29;20043;-78
2023/12/17 08:51:45;;;;;;;34.00;20.55;;;10.10;99.90;;;;;;4899759;29;20028;-81
2023/12/17 08:54:12;;;;;;;33.60;21.77;;;10.10;99.90;;;;;;4916922;29;20036;-79
2023/12/17 08:56:38;;;;;;;35.92;21.42;;;10.10;99.90;;;;;;4900472;29;20032;-79
2023/12/17 08:59:04;;;;;;;34.72;20.90;;;10.10;99.90;;;;;;4899501;29;20028;-79
2023/12/17 09:01:29;;;;;;;35.17;21.45;;;10.10;99.90;;;;;;4883973;29;20124;-80
2023/12/17 09:03:55;;;;;;;35.47;22.15;;;10.10;99.90;;;;;;4899722;29;20047;-79
2023/12/17 09:06:21;;;;;;;33.92;20.35;;;10.10;99.90;;;;;;4917277;29;20047;-79
2023/12/17 09:08:46;;;;;;;33.55;21.50;;;10.10;99.90;;;;;;4900262;29;20087;-77
2023/12/17 09:11:12;;;;;;;32.42;21.02;;;10.10;99.90;;;;;;4884202;29;20499;-79
2023/12/17 09:13:38;;;;;;;31.80;19.60;;;10.10;99.90;;;;;;4900012;29;20043;-80
2023/12/17 09:16:04;;;;;;;26.73;17.67;;;10.00;99.90;;;;;;4884708;29;20494;-79
2023/12/17 09:18:30;;;;;;;29.08;18.75;;;10.00;99.90;;;;;;4899754;29;20389;-80
2023/12/17 09:20:56;;;;;;;27.00;17.75;;;10.10;99.90;;;;;;4884054;29;20032;-79
2023/12/17 09:23:21;;;;;;;30.73;18.27;;;10.10;99.90;;;;;;4884472;29;20052;-79
2023/12/17 09:25:47;;;;;;;26.63;17.88;;;10.10;99.90;;;;;;4883995;29;20036;-79
2023/12/17 09:28:13;;;;;;;28.35;18.10;;;10.10;99.90;;;;;;4884081;29;20066;-79
2023/12/17 09:30:38;;;;;;;26.83;18.05;;;10.10;99.90;;;;;;4899981;29;20401;-77
2023/12/17 09:33:04;;;;;;;27.83;17.85;;;10.10;99.90;;;;;;4868840;29;20366;-79
2023/12/17 09:35:31;;;;;;;25.48;17.20;;;10.10;99.90;;;;;;4868221;29;20040;-80
2023/12/17 09:37:57;;;;;;;25.17;15.32;;;10.10;99.90;;;;;;4884154;29;20038;-82
2023/12/17 09:40:24;;;;;;;23.88;15.57;;;10.00;99.90;;;;;;4884631;29;20118;-80
2023/12/17 09:42:52;;;;;;;22.13;15.57;;;10.10;99.90;;;;;;4916293;29;20052;-81
2023/12/17 09:45:18;;;;;;;20.98;14.30;;;10.00;99.90;;;;;;4869747;29;20131;-81
2023/12/17 09:47:44;;;;;;;19.98;14.00;;;10.10;99.90;;;;;;4899566;29;20032;-81
2023/12/17 09:50:10;;;;;;;20.85;14.05;;;10.10;99.90;;;;;;4899543;29;20493;-81
2023/12/17 09:52:43;;;;;;;20.35;14.23;;;10.10;99.90;;;;;;4899300;29;20338;-80
2023/12/17 09:55:14;;;;;;;19.17;13.45;;;10.00;99.90;;;;;;4900010;29;20165;-81
2023/12/17 09:57:40;;;;;;;21.08;14.57;;;10.10;99.90;;;;;;4916342;29;20024;-82
2023/12/17 10:00:10;;;;;;;21.70;12.90;;;10.00;99.90;;;;;;4899745;29;20080;-82
2023/12/17 10:02:36;;;;;;;22.60;14.35;;;10.00;99.90;;;;;;4901048;29;20385;-80
2023/12/17 10:05:02;;;;;;;21.67;14.55;;;10.00;99.90;;;;;;4919525;29;20043;-79
2023/12/17 10:07:29;;;;;;;20.92;14.35;;;10.00;99.90;;;;;;4902750;29;20036;-82
2023/12/17 10:09:57;;;;;;;20.92;14.05;;;10.00;99.90;;;;;;4887616;29;20033;-80
2023/12/17 10:12:23;;;;;;;23.50;14.43;;;10.00;99.90;;;;;;4902162;29;20024;-79
2023/12/17 10:14:51;;;;;;;20.55;13.60;;;10.00;99.90;;;;;;4902286;29;20047;-79
2023/12/17 10:17:18;;;;;;;23.30;14.27;;;10.00;99.90;;;;;;4902656;29;20032;-78
2023/12/17 10:19:52;;;;;;;20.27;15.18;;;10.10;99.90;;;;;;4887108;29;20032;-77
2023/12/17 10:22:19;;;;;;;22.65;15.25;;;10.00;99.90;;;;;;4887512;29;20516;-79
2023/12/17 10:24:45;;;;;;;18.98;13.40;;;10.00;99.90;;;;;;4902255;29;20046;-79
2023/12/17 10:27:19;;;;;;;18.67;13.40;;;10.00;99.90;;;;;;4887791;29;20032;-80
2023/12/17 10:29:50;;;;;;;18.45;13.82;;;10.00;99.90;;;;;;4919265;29;20031;-80
2023/12/17 10:32:21;;;;;;;18.63;13.45;;;10.00;99.90;;;;;;4887143;29;20050;-81
2023/12/17 10:34:48;;;;;;;17.35;11.85;;;9.90;99.90;;;;;;4887598;29;20040;-82
2023/12/17 10:37:19;;;;;;;23.13;13.27;;;9.90;99.90;;;;;;4902244;29;20032;-78
2023/12/17 10:39:48;;;;;;;16.40;12.32;;;9.80;99.90;;;;;;4919241;29;20043;-78
2023/12/17 10:42:16;;;;;;;18.08;12.40;;;9.80;99.90;;;;;;4919393;29;20048;-79
2023/12/17 10:44:49;;;;;;;15.55;11.55;;;9.70;99.90;;;;;;4919773;29;20131;-79
2023/12/17 10:47:20;;;;;;;14.48;11.38;;;9.70;99.90;;;;;;4902522;29;20059;-79
2023/12/17 10:49:46;;;;;;;15.65;11.65;;;9.70;99.90;;;;;;4902530;29;20028;-79
2023/12/17 10:52:12;;;;;;;21.52;12.85;;;9.70;99.90;;;;;;4902016;29;20028;-80
2023/12/17 10:54:39;;;;;;;14.95;11.20;;;9.70;99.90;;;;;;4901695;29;20028;-81
2023/12/17 10:57:17;;;;;;;14.23;10.95;;;9.70;99.90;;;;;;4902971;29;20373;-76
2023/12/17 10:59:45;;;;;;;14.93;10.90;;;9.60;99.90;;;;;;4901709;29;20047;-78
2023/12/17 11:02:12;;;;;;;15.02;11.07;;;9.60;99.90;;;;;;4901414;29;20051;-79
2023/12/17 11:04:45;;;;;;;14.30;11.20;;;9.50;99.90;;;;;;4918413;29;20075;-77
2023/12/17 11:07:20;;;;;;;15.95;11.55;;;9.50;99.90;;;;;;4918858;29;20024;-76
2023/12/17 11:09:46;;;;;;;15.75;11.05;;;9.50;99.90;;;;;;4918782;29;20086;-75
2023/12/17 11:12:12;;;;;;;17.65;13.23;;;9.50;99.90;;;;;;4918521;29;20060;-75
2023/12/17 11:14:42;;;;;;;15.23;12.75;;;9.40;99.90;;;;;;4901780;29;20131;-75
2023/12/17 11:17:16;;;;;;;17.83;13.38;;;9.40;99.90;;;;;;4918454;29;20024;-75
2023/12/17 11:20:00;;;;;;;19.25;12.95;;;9.40;99.90;;;;;;4918393;29;20032;-77
2023/12/17 11:22:27;;;;;;;19.30;14.05;;;9.40;99.90;;;;;;4901641;29;20041;-73
2023/12/17 11:24:56;;;;;;;20.10;14.40;;;9.40;99.90;;;;;;4918338;29;20036;-77
2023/12/17 11:27:23;;;;;;;18.48;13.30;;;9.40;99.90;;;;;;4918777;29;20132;-78
2023/12/17 11:29:50;;;;;;;19.33;14.45;;;9.40;99.90;;;;;;4901184;29;20032;-78
2023/12/17 11:32:18;;;;;;;19.02;14.13;;;9.50;99.90;;;;;;4901512;29;20044;-77
2023/12/17 11:34:50;;;;;;;19.52;14.60;;;9.50;99.90;;;;;;4918164;29;20035;-79
2023/12/17 11:37:20;;;;;;;20.80;14.73;;;9.50;99.90;;;;;;4918430;29;20532;-78
2023/12/17 11:39:47;;;;;;;23.65;16.23;;;9.50;99.90;;;;;;4918343;29;20575;-78
2023/12/17 11:42:14;;;;;;;24.63;16.65;;;9.50;99.90;;;;;;4901180;29;20067;-77
2023/12/17 11:44:43;;;;;;;26.13;17.80;;;9.60;99.90;;;;;;4901083;29;20433;-78
2023/12/17 11:47:11;;;;;;;22.98;16.35;;;9.60;99.90;;;;;;4901295;29;20040;-78
2023/12/17 11:49:37;;;;;;;24.15;17.02;;;9.60;99.90;;;;;;4918825;29;20039;-78
2023/12/17 11:52:14;;;;;;;25.88;17.77;;;9.70;99.90;;;;;;4901034;29;20126;-77
2023/12/17 11:54:43;;;;;;;23.98;17.58;;;9.70;99.90;;;;;;4917736;29;20036;-77
2023/12/17 11:57:22;;;;;;;29.45;19.77;;;9.70;99.90;;;;;;4917608;29;20102;-77
2023/12/17 11:59:49;;;;;;;25.55;17.63;;;9.70;99.90;;;;;;4917632;29;20112;-75
2023/12/17 12:02:18;;;;;;;26.08;17.60;;;9.70;99.90;;;;;;4917525;29;20036;-77
2023/12/17 12:04:45;;;;;;;26.10;17.55;;;9.80;99.90;;;;;;4917485;29;20043;-78
2023/12/17 12:07:17;;;;;;;26.95;16.83;;;9.80;99.90;;;;;;4900473;29;20493;-79
2023/12/17 12:09:46;;;;;;;28.38;18.00;;;9.90;99.90;;;;;;4901219;29;20084;-78
2023/12/17 12:12:18;;;;;;;27.85;17.75;;;9.90;99.90;;;;;;4885191;29;20032;-79
2023/12/17 12:14:45;;;;;;;26.98;17.92;;;10.00;99.90;;;;;;4917359;29;20032;-79
2023/12/17 12:17:39;;;;;;;29.90;18.25;;;10.00;99.90;;;;;;4917315;29;20036;-79
2023/12/17 12:20:10;;;;;;;26.20;17.58;;;10.00;99.90;;;;;;4900234;29;20036;-79
2023/12/17 12:22:37;;;;;;;26.77;17.42;;;10.10;99.90;;;;;;4900615;29;20032;-79
2023/12/17 12:25:03;;;;;;;28.25;18.20;;;10.10;99.90;;;;;;4885235;29;20142;-78
2023/12/17 12:27:29;;;;;;;26.63;17.83;;;10.20;99.90;;;;;;4917756;29;20096;-78
2023/12/17 12:29:56;;;;;;;28.60;18.30;;;10.20;99.90;;;;;;4917686;29;20036;-78
2023/12/17 12:32:27;;;;;;;26.63;17.35;;;10.20;99.90;;;;;;4885266;29;20040;-77